Estación Meteorológica Peña el Pijo (Robertgarden) [ 01/30/23 14:17:05 CET ]

Fecha Hora Presion(HPa) Temp (°C) Humedad % Rocio (°C) Viento ( m/s) Direccion Lluvia 1Hora(mm) Lluvia 24H(mm) LLuvia Total(mm)
2012-Jun-12 01:01:14 1007.300 16.5 41 3.2         159.54
2012-Jun-12 02:01:12 1007.800 13.6 50 3.4         159.54
2012-Jun-12 03:05:17 1007.900 12.4 53 3.0         159.54
2012-Jun-12 04:01:18 1007.800 12.4 51 2.5         159.54
2012-Jun-12 05:01:14 1007.800 12.7 50 2.5         159.54
2012-Jun-12 06:01:12 1008.300 10.3 56 1.9         159.54
2012-Jun-12 07:01:16 1008.800 8.2 65 2.0         159.54
2012-Jun-12 08:01:13 1009.200 11.3 64 4.7         159.54
2012-Jun-12 09:01:13 1009.400 15.9 47 4.5         159.54
2012-Jun-12 10:01:14 1009.300 19.1 40 5.2         159.54
2012-Jun-12 11:01:14 1009.100 22.6 32 5.0         159.54
2012-Jun-12 12:01:16 1009.000 25.9 24 3.5 3.1 S     159.54
2012-Jun-12 13:01:16 1009.100 27.3 22 3.6         159.54
2012-Jun-12 14:01:16 1009.000 27.5 21 3.2         159.54
2012-Jun-12 15:01:12 1008.600 27.7 19 1.8         159.54
2012-Jun-12 16:01:12 1008.400 29.8 16 0.6         159.54
2012-Jun-12 17:01:18 1008.300 30.1 15 -0.1 1.5 SSW     159.54
2012-Jun-12 18:01:14 1008.500 29.3 16 0.2         159.54
2012-Jun-12 19:01:11 1008.700 28.5 17 0.6         159.54
2012-Jun-12 20:01:14 1009.200 26.0 18 -0.6         159.54
2012-Jun-12 21:01:13 1009.600 20.8 23 -1.3         159.54
2012-Jun-12 22:01:18 1010.400 17.6 29 -0.7         159.54
2012-Jun-12 23:01:12 1010.900 14.9 37 0.2         159.54

Temperatura Máxima:30°    Temperatura Mínima:
Presión Máxima:1010.900 Hpa    Presión Mínima:1007.300 Hpa


Volver